Time;durP1;ratioP1;P1;durP2;ratioP2;P2;SDS_P1;SDS_P2;PMS_P1;PMS_P2;Temp;Humidity;BMP_temperature;BMP_pressure;BME280_temperature;BME280_humidity;BME280_pressure;Samples;Min_cycle;Max_cycle;Signal;HPM_P1;HPM_P2
2024/01/25 00:00:01;;;;;;;21.23;5.13;;;7.60;99.90;;;;;;4978228;28;20050;-82
2024/01/25 00:02:26;;;;;;;23.65;4.78;;;7.60;99.90;;;;;;4963692;28;20067;-82
2024/01/25 00:04:52;;;;;;;19.48;4.53;;;7.60;99.90;;;;;;4964493;28;20043;-82
2024/01/25 00:07:18;;;;;;;21.02;4.00;;;7.50;99.90;;;;;;4947684;28;20042;-82
2024/01/25 00:09:44;;;;;;;18.02;4.57;;;7.60;99.90;;;;;;4917438;28;20042;-82
2024/01/25 00:12:09;;;;;;;17.27;4.68;;;7.50;99.90;;;;;;4963869;28;20074;-82
2024/01/25 00:14:35;;;;;;;18.88;4.93;;;7.50;99.90;;;;;;4929769;28;20133;-82
2024/01/25 00:17:01;;;;;;;20.05;4.32;;;7.60;99.90;;;;;;4929993;28;20385;-82
2024/01/25 00:19:27;;;;;;;17.85;4.32;;;7.60;99.90;;;;;;4932213;28;20070;-82
2024/01/25 00:21:52;;;;;;;22.35;4.30;;;7.50;99.90;;;;;;4963183;28;20047;-82
2024/01/25 00:24:18;;;;;;;18.33;4.80;;;7.50;99.90;;;;;;4950025;28;20042;-82
2024/01/25 00:26:44;;;;;;;17.73;4.40;;;7.40;99.90;;;;;;4963563;28;20305;-82
2024/01/25 00:29:09;;;;;;;21.92;4.32;;;7.40;99.90;;;;;;4942372;28;20026;-83
2024/01/25 00:31:35;;;;;;;19.45;4.32;;;7.40;99.90;;;;;;4966277;28;20365;-82
2024/01/25 00:34:02;;;;;;;20.25;4.70;;;7.30;99.90;;;;;;4952597;28;20058;-82
2024/01/25 00:36:28;;;;;;;18.63;5.00;;;7.30;99.90;;;;;;4953213;28;20050;-82
2024/01/25 00:38:54;;;;;;;16.25;4.68;;;7.30;99.90;;;;;;4962975;28;20078;-82
2024/01/25 00:41:20;;;;;;;13.95;3.45;;;7.30;99.90;;;;;;4966534;28;20050;-82
2024/01/25 00:43:46;;;;;;;19.17;4.80;;;7.30;99.90;;;;;;4952095;28;20122;-82
2024/01/25 00:46:14;;;;;;;18.92;4.35;;;7.30;99.90;;;;;;4966590;28;20034;-82
2024/01/25 00:48:40;;;;;;;19.23;4.53;;;7.30;99.90;;;;;;4966958;28;20038;-82
2024/01/25 00:51:07;;;;;;;20.83;5.00;;;7.20;99.90;;;;;;4949361;28;20459;-82
2024/01/25 00:53:34;;;;;;;21.35;4.95;;;7.10;99.90;;;;;;4965153;28;20108;-82
2024/01/25 00:56:00;;;;;;;19.45;5.80;;;7.20;99.90;;;;;;4965220;28;20042;-82
2024/01/25 00:58:26;;;;;;;19.13;5.22;;;7.10;99.90;;;;;;4963679;28;20073;-82
2024/01/25 01:00:52;;;;;;;22.33;4.40;;;7.10;99.90;;;;;;4950234;28;20046;-82
2024/01/25 01:03:21;;;;;;;18.05;4.80;;;7.10;99.90;;;;;;4980634;28;20042;-82
2024/01/25 01:05:47;;;;;;;18.38;4.60;;;7.00;99.90;;;;;;4970435;28;20046;-82
2024/01/25 01:08:13;;;;;;;22.77;6.03;;;7.00;99.90;;;;;;4967930;28;20041;-83
2024/01/25 01:10:39;;;;;;;18.15;4.78;;;6.90;99.90;;;;;;4998263;28;20034;-82
2024/01/25 01:13:04;;;;;;;20.20;4.80;;;6.80;99.90;;;;;;4949857;28;20037;-82
2024/01/25 01:15:30;;;;;;;21.00;4.32;;;6.80;99.90;;;;;;4966653;28;20151;-82
2024/01/25 01:17:56;;;;;;;22.95;5.40;;;6.80;99.90;;;;;;4996041;28;20042;-82
2024/01/25 01:20:21;;;;;;;21.55;5.03;;;6.70;99.90;;;;;;4949768;28;20050;-82
2024/01/25 01:22:47;;;;;;;16.98;4.28;;;6.80;99.90;;;;;;4979995;28;20128;-82
2024/01/25 01:25:13;;;;;;;18.00;3.97;;;6.80;99.90;;;;;;4971748;28;20097;-82
2024/01/25 01:27:38;;;;;;;22.15;5.13;;;6.80;99.90;;;;;;4948073;28;20098;-82
2024/01/25 01:30:07;;;;;;;20.85;4.90;;;6.80;99.90;;;;;;4965253;28;20046;-82
2024/01/25 01:32:32;;;;;;;20.05;4.50;;;6.70;99.90;;;;;;4949087;28;20046;-82
2024/01/25 01:34:58;;;;;;;20.27;5.05;;;6.70;99.90;;;;;;4964471;28;20581;-82
2024/01/25 01:37:24;;;;;;;18.88;3.95;;;6.80;99.90;;;;;;4965135;28;20559;-82
2024/01/25 01:39:50;;;;;;;20.08;5.40;;;6.70;99.90;;;;;;4967087;28;20041;-82
2024/01/25 01:42:15;;;;;;;20.23;4.47;;;6.70;99.90;;;;;;4953472;28;20065;-82
2024/01/25 01:44:41;;;;;;;16.25;4.28;;;6.80;99.90;;;;;;4963003;28;20410;-82
2024/01/25 01:47:07;;;;;;;16.88;4.20;;;6.70;99.90;;;;;;4981459;28;20053;-82
2024/01/25 01:49:33;;;;;;;23.58;5.38;;;6.70;99.90;;;;;;4995234;28;20054;-82
2024/01/25 01:51:59;;;;;;;21.70;5.07;;;6.80;99.90;;;;;;4981818;28;20046;-82
2024/01/25 01:54:25;;;;;;;18.40;4.47;;;6.80;99.90;;;;;;4948791;28;20041;-82
2024/01/25 01:56:51;;;;;;;22.67;4.90;;;6.70;99.90;;;;;;4983588;28;20046;-82
2024/01/25 01:59:17;;;;;;;17.75;4.10;;;6.70;99.90;;;;;;4994495;28;20127;-82
2024/01/25 02:01:43;;;;;;;20.70;4.97;;;6.70;99.90;;;;;;4947773;28;20039;-82
2024/01/25 02:04:09;;;;;;;20.63;4.38;;;6.70;99.90;;;;;;4933509;28;20042;-82
2024/01/25 02:06:34;;;;;;;17.80;4.57;;;6.70;99.90;;;;;;4953636;28;20030;-82
2024/01/25 02:09:00;;;;;;;21.38;5.00;;;6.70;99.90;;;;;;4950834;28;20078;-83
2024/01/25 02:11:27;;;;;;;19.10;5.28;;;6.70;99.90;;;;;;4995166;28;20038;-82
2024/01/25 02:13:53;;;;;;;16.75;4.13;;;6.60;99.90;;;;;;4961554;28;20121;-82
2024/01/25 02:16:19;;;;;;;20.17;4.55;;;6.60;99.90;;;;;;4964313;28;20156;-82
2024/01/25 02:18:46;;;;;;;18.55;4.35;;;6.70;99.90;;;;;;4963814;28;20053;-82
2024/01/25 02:21:12;;;;;;;22.92;4.65;;;6.60;99.90;;;;;;4962969;28;20043;-83
2024/01/25 02:23:38;;;;;;;20.95;4.50;;;6.60;99.90;;;;;;4968465;28;20069;-82
2024/01/25 02:26:04;;;;;;;21.02;4.80;;;6.60;99.90;;;;;;4967544;28;20133;-82
2024/01/25 02:28:29;;;;;;;25.48;4.63;;;6.60;99.90;;;;;;4953272;28;20074;-82
2024/01/25 02:30:55;;;;;;;23.55;4.82;;;6.60;99.90;;;;;;4998666;28;20038;-82
2024/01/25 02:33:21;;;;;;;23.60;4.60;;;6.50;99.90;;;;;;4999737;28;20046;-82
2024/01/25 02:35:47;;;;;;;26.67;5.43;;;6.50;99.90;;;;;;4985273;28;20050;-82
2024/01/25 02:38:12;;;;;;;18.75;4.45;;;6.40;99.90;;;;;;4952210;28;20082;-82
2024/01/25 02:40:38;;;;;;;20.10;5.22;;;6.40;99.90;;;;;;4982402;28;20107;-82
2024/01/25 02:43:04;;;;;;;17.52;4.88;;;6.40;99.90;;;;;;4967135;28;20125;-82
2024/01/25 02:45:30;;;;;;;21.63;5.60;;;6.40;99.90;;;;;;4969442;28;20581;-82
2024/01/25 02:47:55;;;;;;;25.95;5.13;;;6.70;99.90;;;;;;4954327;28;20034;-82
2024/01/25 02:50:21;;;;;;;19.27;5.03;;;6.40;99.90;;;;;;4951920;28;20304;-82
2024/01/25 02:52:47;;;;;;;20.52;5.22;;;6.40;99.90;;;;;;4980577;28;20416;-83
2024/01/25 02:55:12;;;;;;;24.00;4.75;;;6.30;99.90;;;;;;5000840;28;20049;-82
2024/01/25 02:57:38;;;;;;;25.85;4.97;;;6.30;99.90;;;;;;4985623;28;20408;-82
2024/01/25 03:00:05;;;;;;;19.58;5.10;;;6.20;99.90;;;;;;4998995;28;20041;-82
2024/01/25 03:02:31;;;;;;;21.63;4.78;;;6.30;99.90;;;;;;4965501;28;20049;-82
2024/01/25 03:04:57;;;;;;;23.20;4.82;;;6.20;99.90;;;;;;4982600;28;20117;-82
2024/01/25 03:07:22;;;;;;;23.75;4.75;;;6.10;99.90;;;;;;4969090;28;20077;-82
2024/01/25 03:09:48;;;;;;;20.15;5.05;;;6.20;99.90;;;;;;4952631;28;20500;-83
2024/01/25 03:12:14;;;;;;;23.25;5.68;;;6.10;99.90;;;;;;4953254;28;20046;-82
2024/01/25 03:14:40;;;;;;;21.90;5.32;;;6.00;99.90;;;;;;4982662;28;20411;-82
2024/01/25 03:17:05;;;;;;;20.98;4.95;;;6.00;99.90;;;;;;4968069;28;20104;-83
2024/01/25 03:19:31;;;;;;;26.20;5.43;;;6.30;99.90;;;;;;4953985;28;20061;-83
2024/01/25 03:21:57;;;;;;;29.92;5.85;;;6.00;99.90;;;;;;4969705;28;20554;-82
2024/01/25 03:24:23;;;;;;;21.13;5.03;;;6.00;99.90;;;;;;4950016;28;20046;-82
2024/01/25 03:26:49;;;;;;;22.13;4.38;;;6.70;99.90;;;;;;4951931;28;20114;-82
2024/01/25 03:29:15;;;;;;;20.52;4.57;;;5.90;99.90;;;;;;5007725;28;20706;-82
2024/01/25 03:31:41;;;;;;;21.27;4.88;;;5.90;99.90;;;;;;4968887;28;20077;-82
2024/01/25 03:34:07;;;;;;;17.10;4.70;;;5.90;99.90;;;;;;4979960;28;20058;-83
2024/01/25 03:36:33;;;;;;;26.85;5.28;;;5.90;99.90;;;;;;4949887;28;20144;-83
2024/01/25 03:38:59;;;;;;;22.20;5.10;;;6.00;99.90;;;;;;4968552;28;20058;-83
2024/01/25 03:41:24;;;;;;;23.25;5.20;;;6.00;99.90;;;;;;4968211;28;20042;-82
2024/01/25 03:43:51;;;;;;;22.92;5.25;;;5.80;99.90;;;;;;4969103;28;20124;-82
2024/01/25 03:46:17;;;;;;;25.92;5.13;;;5.90;99.90;;;;;;4982356;28;20432;-83
2024/01/25 03:48:43;;;;;;;24.88;4.95;;;5.90;99.90;;;;;;4968809;28;20034;-82
2024/01/25 03:51:09;;;;;;;27.05;5.07;;;5.80;99.90;;;;;;4950758;28;20695;-82
2024/01/25 03:53:34;;;;;;;25.77;5.35;;;5.80;99.90;;;;;;4980901;28;21152;-83
2024/01/25 03:56:00;;;;;;;25.80;5.10;;;5.90;99.90;;;;;;5002355;28;20092;-82
2024/01/25 03:58:26;;;;;;;24.52;4.80;;;5.80;99.90;;;;;;4969890;28;20858;-82
2024/01/25 04:00:52;;;;;;;21.70;4.90;;;5.80;99.90;;;;;;4969790;28;20138;-82
2024/01/25 04:03:18;;;;;;;22.75;4.80;;;5.90;99.90;;;;;;4997361;28;20803;-82
2024/01/25 04:05:43;;;;;;;22.92;5.55;;;5.80;99.90;;;;;;4997139;28;20038;-82
2024/01/25 04:08:10;;;;;;;30.65;5.72;;;5.70;99.90;;;;;;4971547;28;20097;-83
2024/01/25 04:10:35;;;;;;;26.67;5.57;;;5.70;99.90;;;;;;4967544;28;20431;-82
2024/01/25 04:13:03;;;;;;;27.05;5.05;;;5.80;99.90;;;;;;4983491;28;20035;-82
2024/01/25 04:15:29;;;;;;;23.58;5.20;;;5.70;99.90;;;;;;4981608;28;20107;-82
2024/01/25 04:17:56;;;;;;;21.60;4.43;;;5.80;99.90;;;;;;4968718;28;20038;-82
2024/01/25 04:20:21;;;;;;;19.90;5.10;;;5.70;99.90;;;;;;4967597;28;20042;-82
2024/01/25 04:22:47;;;;;;;21.85;5.45;;;5.70;99.90;;;;;;4980722;28;20061;-82
2024/01/25 04:25:13;;;;;;;26.83;5.45;;;6.00;99.90;;;;;;4981001;28;20069;-82
2024/01/25 04:27:39;;;;;;;26.35;5.30;;;5.60;99.90;;;;;;4950571;28;20061;-82
2024/01/25 04:30:06;;;;;;;25.20;5.30;;;5.60;99.90;;;;;;4969228;28;20382;-82
2024/01/25 04:32:32;;;;;;;24.52;5.85;;;5.60;99.90;;;;;;4981713;28;20038;-82
2024/01/25 04:34:58;;;;;;;26.23;5.60;;;5.60;99.90;;;;;;5001049;28;20085;-82
2024/01/25 04:37:24;;;;;;;23.40;5.53;;;5.60;99.90;;;;;;5001062;28;20101;-82
2024/01/25 04:39:50;;;;;;;23.98;5.57;;;5.60;99.90;;;;;;4971289;28;20196;-83
2024/01/25 04:42:15;;;;;;;29.70;5.78;;;5.80;99.90;;;;;;4965241;28;20105;-82
2024/01/25 04:44:41;;;;;;;23.88;5.13;;;5.60;99.90;;;;;;4952822;28;20126;-82
2024/01/25 04:47:07;;;;;;;22.38;4.90;;;5.50;99.90;;;;;;5013635;28;20527;-82
2024/01/25 04:49:33;;;;;;;25.15;5.25;;;5.50;99.90;;;;;;4981338;28;20042;-83
2024/01/25 04:51:59;;;;;;;24.02;5.38;;;5.40;99.90;;;;;;4963439;28;20035;-82
2024/01/25 04:54:25;;;;;;;21.15;5.03;;;5.50;99.90;;;;;;4951782;28;20078;-82
2024/01/25 04:56:50;;;;;;;24.83;5.35;;;5.50;99.90;;;;;;4998428;28;20034;-82
2024/01/25 04:59:16;;;;;;;30.98;5.88;;;5.30;99.90;;;;;;4948924;28;20407;-82
2024/01/25 05:01:42;;;;;;;20.13;4.65;;;5.30;99.90;;;;;;4950783;28;20049;-83
2024/01/25 05:04:08;;;;;;;25.88;5.10;;;5.40;99.90;;;;;;4981915;28;20269;-82
2024/01/25 05:06:33;;;;;;;25.15;5.22;;;5.30;99.90;;;;;;4954339;28;20132;-83
2024/01/25 05:08:59;;;;;;;27.23;5.10;;;5.30;99.90;;;;;;4964605;28;20045;-82
2024/01/25 05:11:25;;;;;;;23.77;5.50;;;5.30;99.90;;;;;;4964759;28;20057;-82
2024/01/25 05:13:50;;;;;;;21.20;4.45;;;5.20;99.90;;;;;;4965723;28;20038;-82
2024/01/25 05:16:16;;;;;;;21.55;4.78;;;5.20;99.90;;;;;;4981402;28;20061;-82
2024/01/25 05:18:42;;;;;;;22.25;4.63;;;5.20;99.90;;;;;;4998154;28;20048;-82
2024/01/25 05:21:08;;;;;;;25.60;5.90;;;5.10;99.90;;;;;;4981936;28;20045;-82
2024/01/25 05:23:33;;;;;;;21.95;5.25;;;5.10;99.90;;;;;;4969155;28;20041;-82
2024/01/25 05:25:59;;;;;;;20.63;4.60;;;5.20;99.90;;;;;;4962302;28;20039;-82
2024/01/25 05:28:25;;;;;;;25.30;5.40;;;5.20;99.90;;;;;;4949313;28;20128;-82
2024/01/25 05:30:51;;;;;;;19.70;4.70;;;6.20;99.90;;;;;;4969084;28;20046;-82
2024/01/25 05:33:16;;;;;;;23.48;5.20;;;5.10;99.90;;;;;;4993787;28;20192;-83
2024/01/25 05:35:42;;;;;;;28.55;5.65;;;5.10;99.90;;;;;;4963763;28;20062;-82
2024/01/25 05:38:08;;;;;;;24.58;5.70;;;5.20;99.90;;;;;;4995530;28;20319;-82
2024/01/25 05:40:34;;;;;;;24.42;5.28;;;5.20;99.90;;;;;;5012924;28;20034;-82
2024/01/25 05:43:00;;;;;;;21.00;5.53;;;5.10;99.90;;;;;;4959497;28;20056;-82
2024/01/25 05:45:26;;;;;;;20.33;4.60;;;5.10;99.90;;;;;;4963081;28;20476;-82
2024/01/25 05:47:51;;;;;;;26.77;5.57;;;5.10;99.90;;;;;;4963224;28;20049;-82
2024/01/25 05:50:17;;;;;;;22.95;4.85;;;5.10;99.90;;;;;;4948761;28;20137;-82
2024/01/25 05:52:43;;;;;;;22.70;4.53;;;5.10;99.90;;;;;;4980084;28;20030;-83
2024/01/25 05:55:09;;;;;;;23.45;5.35;;;5.10;99.90;;;;;;4952980;28;20065;-82
2024/01/25 05:57:36;;;;;;;25.38;5.47;;;5.00;99.90;;;;;;4944326;28;20049;-82
2024/01/25 06:00:03;;;;;;;20.45;5.38;;;5.00;99.90;;;;;;4972455;28;20039;-82
2024/01/25 06:02:29;;;;;;;22.10;4.85;;;5.10;99.90;;;;;;5000947;28;20103;-82
2024/01/25 06:04:58;;;;;;;31.17;5.72;;;5.00;99.90;;;;;;4983502;28;20504;-82
2024/01/25 06:07:24;;;;;;;27.40;5.43;;;5.00;99.90;;;;;;5003006;28;20042;-82
2024/01/25 06:09:50;;;;;;;24.70;5.15;;;4.90;99.90;;;;;;5004771;28;20031;-82
2024/01/25 06:12:16;;;;;;;22.45;5.03;;;4.90;99.90;;;;;;5004009;28;20466;-82
2024/01/25 06:14:42;;;;;;;23.05;5.38;;;6.30;99.90;;;;;;4970418;28;20045;-82
2024/01/25 06:17:08;;;;;;;22.27;5.00;;;4.80;99.90;;;;;;4988985;28;20435;-82
2024/01/25 06:19:34;;;;;;;23.65;5.57;;;4.90;99.90;;;;;;4985584;28;20652;-82
2024/01/25 06:22:00;;;;;;;26.63;5.22;;;4.80;99.90;;;;;;5003070;28;20121;-82
2024/01/25 06:24:26;;;;;;;23.70;4.90;;;5.30;99.90;;;;;;4988104;28;20046;-82
2024/01/25 06:26:55;;;;;;;23.05;5.38;;;5.30;99.90;;;;;;4954489;28;20340;-82
2024/01/25 06:29:21;;;;;;;22.02;5.05;;;4.70;99.90;;;;;;4973816;28;20042;-82
2024/01/25 06:31:47;;;;;;;23.83;5.07;;;4.80;99.90;;;;;;4968677;28;20038;-82
2024/01/25 06:34:12;;;;;;;22.60;4.85;;;4.80;99.90;;;;;;4974240;28;20055;-82
2024/01/25 06:36:39;;;;;;;24.33;4.82;;;4.80;99.90;;;;;;5001011;28;20084;-82
2024/01/25 06:39:04;;;;;;;20.23;5.28;;;4.70;99.90;;;;;;4972513;28;20038;-82
2024/01/25 06:41:30;;;;;;;26.85;5.30;;;5.10;99.90;;;;;;4957402;28;20041;-82
2024/01/25 06:43:56;;;;;;;29.55;4.82;;;4.70;99.90;;;;;;4972764;28;20125;-82
2024/01/25 06:46:22;;;;;;;24.60;4.65;;;4.70;99.90;;;;;;4986893;28;20506;-83
2024/01/25 06:48:49;;;;;;;28.40;5.28;;;4.60;99.90;;;;;;4985513;28;20224;-83
2024/01/25 06:51:14;;;;;;;24.52;4.90;;;5.10;99.90;;;;;;4972338;28;20034;-82
2024/01/25 06:53:40;;;;;;;24.63;5.20;;;4.50;99.90;;;;;;4969230;28;20053;-82
2024/01/25 06:56:06;;;;;;;26.27;5.18;;;4.50;99.90;;;;;;4987531;28;20092;-82
2024/01/25 06:58:32;;;;;;;24.45;4.97;;;4.50;99.90;;;;;;4985087;28;20042;-82
2024/01/25 07:00:59;;;;;;;22.20;4.93;;;4.40;99.90;;;;;;5004033;28;20039;-82
2024/01/25 07:03:24;;;;;;;23.45;4.65;;;4.90;99.90;;;;;;4955670;28;20034;-82
2024/01/25 07:05:50;;;;;;;25.05;5.40;;;4.40;99.90;;;;;;4986944;28;20043;-82
2024/01/25 07:08:16;;;;;;;26.30;5.32;;;4.40;99.90;;;;;;4986552;28;20548;-82
2024/01/25 07:10:42;;;;;;;26.00;5.18;;;4.50;99.90;;;;;;4953912;28;20042;-83
2024/01/25 07:13:08;;;;;;;24.85;5.40;;;4.70;99.90;;;;;;4969438;28;20038;-83
2024/01/25 07:15:34;;;;;;;22.33;5.25;;;5.00;99.90;;;;;;4956756;28;20045;-83
2024/01/25 07:17:59;;;;;;;29.55;6.60;;;4.60;99.90;;;;;;4964338;28;20042;-84
2024/01/25 07:20:25;;;;;;;21.08;4.85;;;4.40;99.90;;;;;;4987960;28;20056;-83
2024/01/25 07:22:51;;;;;;;23.58;5.53;;;4.40;99.90;;;;;;4984564;28;20037;-83
2024/01/25 07:25:17;;;;;;;24.65;4.93;;;4.40;99.90;;;;;;4951534;28;20437;-83
2024/01/25 07:27:46;;;;;;;28.52;5.65;;;4.40;99.90;;;;;;4968781;28;20057;-83
2024/01/25 07:30:13;;;;;;;21.20;4.88;;;4.40;99.90;;;;;;4980110;28;20039;-83
2024/01/25 07:32:42;;;;;;;22.83;5.05;;;4.40;99.90;;;;;;4971545;28;20611;-83
2024/01/25 07:35:10;;;;;;;24.98;5.13;;;4.50;99.90;;;;;;4986650;28;20089;-83
2024/01/25 07:37:36;;;;;;;29.95;5.93;;;4.50;99.90;;;;;;4954256;28;20492;-82
2024/01/25 07:40:06;;;;;;;24.10;5.00;;;4.40;99.90;;;;;;4997167;28;20038;-83
2024/01/25 07:42:32;;;;;;;23.85;5.32;;;4.30;99.90;;;;;;4965729;28;20038;-82
2024/01/25 07:44:58;;;;;;;23.92;4.65;;;4.50;99.90;;;;;;4986376;28;20089;-83
2024/01/25 07:47:23;;;;;;;27.35;5.45;;;4.40;99.90;;;;;;4986430;28;20046;-83
2024/01/25 07:49:49;;;;;;;24.58;6.63;;;4.30;99.90;;;;;;5002041;28;20035;-83
2024/01/25 07:52:15;;;;;;;24.40;5.13;;;4.30;99.90;;;;;;5015549;28;20497;-82
2024/01/25 07:54:41;;;;;;;22.85;5.57;;;4.50;99.90;;;;;;4986908;28;20034;-81
2024/01/25 07:57:06;;;;;;;23.38;5.72;;;4.40;99.90;;;;;;4959184;28;20042;-83
2024/01/25 07:59:32;;;;;;;23.98;5.40;;;4.90;99.90;;;;;;4940389;28;20061;-82
2024/01/25 08:01:58;;;;;;;26.48;5.38;;;4.50;99.90;;;;;;4954395;28;20038;-83
2024/01/25 08:04:24;;;;;;;23.48;4.68;;;4.40;99.90;;;;;;4970392;28;20559;-82
2024/01/25 08:06:49;;;;;;;22.63;5.15;;;4.60;99.90;;;;;;4967280;28;20041;-83
2024/01/25 08:09:15;;;;;;;24.05;4.93;;;4.80;99.90;;;;;;4982116;28;20104;-82
2024/01/25 08:11:41;;;;;;;20.90;4.32;;;4.80;99.90;;;;;;4953394;28;20065;-82
2024/01/25 08:14:07;;;;;;;30.00;5.45;;;5.10;99.90;;;;;;4985160;28;20097;-82
2024/01/25 08:16:35;;;;;;;21.42;5.10;;;5.00;99.90;;;;;;4979482;28;20039;-82
2024/01/25 08:19:00;;;;;;;32.42;6.28;;;4.50;99.90;;;;;;4970130;28;20512;-83
2024/01/25 08:21:26;;;;;;;23.20;5.28;;;4.90;99.90;;;;;;4968639;28;20053;-82
2024/01/25 08:23:52;;;;;;;22.90;5.35;;;4.50;99.90;;;;;;4986564;28;20112;-82
2024/01/25 08:26:19;;;;;;;27.80;6.15;;;4.50;99.90;;;;;;4984549;28;20038;-83
2024/01/25 08:28:46;;;;;;;23.23;4.95;;;4.70;99.90;;;;;;5002257;28;20420;-83
2024/01/25 08:31:11;;;;;;;25.63;6.15;;;4.60;99.90;;;;;;4967403;28;20124;-82
2024/01/25 08:33:41;;;;;;;23.58;5.20;;;4.70;99.90;;;;;;4968216;28;20053;-82
2024/01/25 08:36:07;;;;;;;19.63;5.30;;;4.70;99.90;;;;;;5019063;28;20054;-82
2024/01/25 08:38:33;;;;;;;20.30;5.28;;;4.70;99.90;;;;;;4968925;28;20052;-82
2024/01/25 08:40:59;;;;;;;24.65;5.10;;;4.80;99.90;;;;;;4985381;28;20043;-83
2024/01/25 08:43:24;;;;;;;25.50;6.25;;;4.80;99.90;;;;;;4986595;28;20042;-83
2024/01/25 08:45:50;;;;;;;26.35;6.00;;;4.90;99.90;;;;;;4973042;28;20049;-82
2024/01/25 08:48:16;;;;;;;24.73;5.47;;;4.80;99.90;;;;;;4985607;28;20456;-82
2024/01/25 08:50:42;;;;;;;30.10;5.55;;;5.00;99.90;;;;;;4976473;28;20035;-82
2024/01/25 08:53:08;;;;;;;23.60;5.50;;;4.90;99.90;;;;;;4999569;28;20121;-83
2024/01/25 08:55:33;;;;;;;19.55;4.68;;;5.00;99.90;;;;;;4984820;28;20137;-83
2024/01/25 08:57:59;;;;;;;24.10;6.22;;;5.00;99.90;;;;;;4943733;28;20081;-82
2024/01/25 09:00:25;;;;;;;25.27;5.72;;;5.10;99.90;;;;;;4967526;28;20053;-83
2024/01/25 09:02:51;;;;;;;23.88;5.53;;;5.10;99.90;;;;;;4970511;28;20060;-84
2024/01/25 09:05:16;;;;;;;29.83;6.32;;;5.10;99.90;;;;;;4969892;28;20034;-84
2024/01/25 09:07:42;;;;;;;22.30;5.30;;;5.00;99.90;;;;;;4986982;28;20038;-84
2024/01/25 09:10:08;;;;;;;20.60;5.40;;;5.10;99.90;;;;;;4987685;28;20057;-83
2024/01/25 09:12:35;;;;;;;22.42;5.55;;;5.10;99.90;;;;;;4963115;28;20493;-84
2024/01/25 09:15:02;;;;;;;25.23;5.70;;;5.10;99.90;;;;;;4983911;28;20084;-83
2024/01/25 09:17:28;;;;;;;28.45;6.65;;;5.20;99.90;;;;;;4984755;28;20041;-84
2024/01/25 09:19:54;;;;;;;31.67;5.68;;;5.20;99.90;;;;;;4962618;28;21147;-84
2024/01/25 09:22:20;;;;;;;24.98;6.75;;;5.30;99.90;;;;;;4983894;28;20499;-84
2024/01/25 09:24:46;;;;;;;22.10;5.38;;;5.40;99.90;;;;;;4965126;28;20452;-83
2024/01/25 09:27:13;;;;;;;23.70;5.53;;;5.40;99.90;;;;;;4984804;28;20439;-83
2024/01/25 09:29:40;;;;;;;29.52;6.00;;;5.50;99.90;;;;;;4984103;28;20034;-84
2024/01/25 09:32:09;;;;;;;27.55;6.53;;;5.50;99.90;;;;;;4966711;28;20038;-83
2024/01/25 09:34:38;;;;;;;25.70;5.57;;;5.50;99.90;;;;;;4983193;28;20042;-83
2024/01/25 09:37:05;;;;;;;28.27;5.28;;;5.60;99.90;;;;;;4985536;28;20054;-83
2024/01/25 09:39:35;;;;;;;25.02;4.88;;;5.60;99.90;;;;;;4982644;28;20046;-83
2024/01/25 09:42:02;;;;;;;27.20;6.22;;;5.70;99.90;;;;;;4954123;28;20131;-83
2024/01/25 09:44:28;;;;;;;24.17;4.93;;;5.80;99.90;;;;;;4981976;28;20122;-83
2024/01/25 09:46:55;;;;;;;30.25;6.07;;;5.70;99.90;;;;;;4972699;28;20149;-83
2024/01/25 09:49:21;;;;;;;24.85;5.82;;;5.80;99.90;;;;;;4999800;28;20042;-83
2024/01/25 09:51:50;;;;;;;27.63;5.75;;;5.80;99.90;;;;;;4985854;28;20046;-83
2024/01/25 09:54:16;;;;;;;26.75;6.15;;;5.80;99.90;;;;;;4961339;28;20247;-83
2024/01/25 09:56:42;;;;;;;26.10;6.72;;;6.00;99.90;;;;;;5014245;28;20038;-83
2024/01/25 09:59:08;;;;;;;23.13;5.50;;;6.00;99.90;;;;;;4967273;28;20126;-83
2024/01/25 10:01:34;;;;;;;30.75;6.88;;;5.90;99.90;;;;;;4955416;28;20066;-83
2024/01/25 10:04:00;;;;;;;22.10;4.93;;;5.90;99.90;;;;;;4971856;28;20673;-83
2024/01/25 10:06:26;;;;;;;31.02;5.72;;;5.90;99.90;;;;;;4971071;28;20053;-83
2024/01/25 10:08:53;;;;;;;28.08;5.60;;;6.00;99.90;;;;;;4949684;28;20610;-83
2024/01/25 10:11:19;;;;;;;25.83;5.95;;;6.30;99.90;;;;;;4982927;28;20038;-83
2024/01/25 10:13:47;;;;;;;24.40;5.90;;;6.00;99.90;;;;;;4989007;28;20100;-83
2024/01/25 10:16:12;;;;;;;28.90;6.95;;;6.00;99.90;;;;;;4970025;28;20035;-83
2024/01/25 10:18:41;;;;;;;23.67;6.85;;;6.20;99.90;;;;;;4987925;28;20097;-82
2024/01/25 10:21:07;;;;;;;24.85;5.40;;;6.30;99.90;;;;;;4989897;28;20606;-82
2024/01/25 10:23:32;;;;;;;27.23;5.78;;;6.40;99.90;;;;;;4972163;28;20038;-82
2024/01/25 10:25:58;;;;;;;26.60;7.13;;;6.50;99.90;;;;;;4972381;28;20116;-82
2024/01/25 10:28:25;;;;;;;22.00;6.07;;;6.50;99.90;;;;;;4971300;28;20407;-83
2024/01/25 10:30:51;;;;;;;25.75;6.53;;;6.60;99.90;;;;;;4967705;28;20035;-82
2024/01/25 10:33:17;;;;;;;27.30;5.75;;;6.70;99.90;;;;;;4972211;28;20100;-82
2024/01/25 10:35:49;;;;;;;24.95;5.65;;;6.70;99.90;;;;;;4971442;28;20050;-82
2024/01/25 10:38:17;;;;;;;26.00;6.65;;;6.70;99.90;;;;;;4971821;28;20034;-82
2024/01/25 10:40:46;;;;;;;21.98;5.57;;;6.70;99.90;;;;;;4954682;28;20038;-82
2024/01/25 10:43:11;;;;;;;21.95;5.40;;;6.80;99.90;;;;;;4983834;28;20050;-82
2024/01/25 10:45:37;;;;;;;26.25;5.78;;;6.70;99.90;;;;;;4971823;28;20393;-82
2024/01/25 10:48:04;;;;;;;26.40;5.57;;;6.60;99.90;;;;;;4995069;28;20034;-82
2024/01/25 10:50:30;;;;;;;28.92;6.15;;;6.60;99.90;;;;;;4974616;28;20034;-82
2024/01/25 10:52:57;;;;;;;29.65;5.28;;;6.60;99.90;;;;;;4943553;28;20566;-82
2024/01/25 10:55:23;;;;;;;26.80;6.50;;;6.60;99.90;;;;;;4959864;28;20444;-82
2024/01/25 10:57:49;;;;;;;31.33;6.00;;;6.60;99.90;;;;;;4955319;28;20035;-82
2024/01/25 11:00:16;;;;;;;26.20;6.07;;;6.70;99.90;;;;;;4973502;28;20115;-82
2024/01/25 11:02:43;;;;;;;24.83;5.45;;;6.70;99.90;;;;;;4987023;28;20055;-82
2024/01/25 11:05:14;;;;;;;22.48;5.70;;;7.00;99.90;;;;;;5000578;28;20073;-82
2024/01/25 11:07:44;;;;;;;23.65;6.03;;;6.80;99.90;;;;;;4988028;28;20042;-82
2024/01/25 11:10:28;;;;;;;23.20;5.85;;;6.90;99.90;;;;;;5000385;28;20044;-82
2024/01/25 11:12:59;;;;;;;26.10;5.95;;;7.10;99.90;;;;;;4991257;28;20046;-82
2024/01/25 11:15:33;;;;;;;28.35;5.78;;;7.20;99.90;;;;;;4971047;28;20705;-82
2024/01/25 11:17:59;;;;;;;27.85;5.55;;;7.20;99.90;;;;;;4987171;28;20042;-82
2024/01/25 11:20:27;;;;;;;19.35;6.05;;;7.30;99.90;;;;;;5007214;28;20381;-82
2024/01/25 11:22:57;;;;;;;25.10;6.72;;;7.30;99.90;;;;;;4986966;28;20046;-82
2024/01/25 11:25:24;;;;;;;24.30;5.80;;;7.40;99.90;;;;;;4986429;28;20051;-82
2024/01/25 11:27:50;;;;;;;24.90;5.53;;;7.50;99.90;;;;;;4960651;28;20096;-82
2024/01/25 11:30:19;;;;;;;25.30;6.25;;;7.40;99.90;;;;;;4973965;28;20125;-82
2024/01/25 11:32:47;;;;;;;28.08;6.05;;;7.50;99.90;;;;;;4971988;28;20593;-82
2024/01/25 11:35:16;;;;;;;24.13;6.28;;;7.40;99.90;;;;;;4988098;28;20036;-81
2024/01/25 11:37:46;;;;;;;24.45;4.97;;;7.50;99.90;;;;;;5013603;28;20043;-82
2024/01/25 11:40:13;;;;;;;19.83;4.70;;;7.40;99.90;;;;;;4956420;28;20042;-82
2024/01/25 11:42:39;;;;;;;22.52;5.63;;;7.40;99.90;;;;;;5020048;28;20443;-82
2024/01/25 11:45:09;;;;;;;25.83;6.43;;;7.50;99.90;;;;;;5002645;28;20101;-82
2024/01/25 11:47:36;;;;;;;19.42;4.78;;;7.50;99.90;;;;;;4987679;28;20101;-82
2024/01/25 11:50:02;;;;;;;23.17;5.32;;;7.50;99.90;;;;;;4971597;28;20042;-83
2024/01/25 11:52:28;;;;;;;22.35;6.00;;;7.60;99.90;;;;;;4970488;28;20199;-82
2024/01/25 11:54:54;;;;;;;28.95;5.50;;;7.60;99.90;;;;;;4972657;28;20756;-82
2024/01/25 11:57:20;;;;;;;25.80;5.53;;;7.60;99.90;;;;;;4943001;28;20088;-82
2024/01/25 11:59:47;;;;;;;21.05;4.72;;;7.50;99.90;;;;;;4956215;28;20042;-82
2024/01/25 12:02:13;;;;;;;24.70;5.45;;;7.90;99.90;;;;;;4984150;28;20042;-82
2024/01/25 12:04:39;;;;;;;23.25;5.03;;;7.60;99.90;;;;;;4971875;28;20206;-82
2024/01/25 12:07:05;;;;;;;21.20;5.00;;;7.50;99.90;;;;;;4989641;28;20088;-82
2024/01/25 12:09:31;;;;;;;23.27;5.50;;;7.50;99.90;;;;;;4972764;28;20066;-82
2024/01/25 12:11:57;;;;;;;23.60;5.72;;;7.50;99.90;;;;;;4955290;28;20665;-82
2024/01/25 12:14:27;;;;;;;24.48;5.65;;;7.60;99.90;;;;;;5003752;28;20049;-82
2024/01/25 12:16:55;;;;;;;21.50;5.70;;;7.60;99.90;;;;;;4971922;28;20033;-82
2024/01/25 12:19:21;;;;;;;18.98;5.00;;;7.60;99.90;;;;;;4990789;28;20081;-82
2024/01/25 12:21:47;;;;;;;19.38;5.15;;;7.70;99.90;;;;;;4973319;28;20532;-82
2024/01/25 12:24:13;;;;;;;21.48;4.93;;;7.60;99.90;;;;;;4987902;28;20168;-82
2024/01/25 12:26:41;;;;;;;20.70;5.25;;;7.60;99.90;;;;;;4970687;28;20070;-82
2024/01/25 12:29:08;;;;;;;18.38;4.70;;;7.70;99.90;;;;;;4974222;28;20030;-82
2024/01/25 12:31:34;;;;;;;24.63;5.47;;;7.60;99.90;;;;;;4972299;28;20113;-82
2024/01/25 12:34:03;;;;;;;22.20;5.57;;;7.70;99.90;;;;;;4975446;28;20095;-82
2024/01/25 12:36:28;;;;;;;20.48;5.18;;;7.70;99.90;;;;;;4973141;28;20073;-82
2024/01/25 12:38:54;;;;;;;22.08;5.47;;;7.70;99.90;;;;;;4939705;28;20042;-82
2024/01/25 12:41:20;;;;;;;24.73;6.10;;;7.70;99.90;;;;;;4972477;28;20433;-82